Time;durP1;ratioP1;P1;durP2;ratioP2;P2;SDS_P1;SDS_P2;PMS_P1;PMS_P2;Temp;Humidity;BMP_temperature;BMP_pressure;BME280_temperature;BME280_humidity;BME280_pressure;Samples;Min_cycle;Max_cycle;Signal;HPM_P1;HPM_P2
2022/10/02 00:00:27;;;;;;;9.27;2.47;;;9.90;99.90;;;;;;5015170;28;20750;-91
2022/10/02 00:03:00;;;;;;;8.70;2.60;;;9.90;99.90;;;;;;5016308;28;20219;-91
2022/10/02 00:05:32;;;;;;;11.37;2.67;;;9.80;99.90;;;;;;5015225;28;20633;-90
2022/10/02 00:08:04;;;;;;;8.87;2.97;;;9.80;99.90;;;;;;5016727;28;20273;-92
2022/10/02 00:10:36;;;;;;;12.67;3.07;;;9.80;99.90;;;;;;5017806;28;20310;-93
2022/10/02 00:13:07;;;;;;;16.50;3.40;;;9.80;99.90;;;;;;5025562;28;20282;-92
2022/10/02 00:15:37;;;;;;;17.60;2.93;;;9.70;99.90;;;;;;5040325;28;20234;-93
2022/10/02 00:18:11;;;;;;;14.33;3.73;;;9.70;99.90;;;;;;5054919;28;20230;-92
2022/10/02 00:20:44;;;;;;;10.90;3.23;;;9.70;99.90;;;;;;5041299;28;20235;-92
2022/10/02 00:23:18;;;;;;;15.27;3.40;;;9.70;99.90;;;;;;5038317;28;20215;-92
2022/10/02 00:25:51;;;;;;;9.97;2.87;;;9.70;99.90;;;;;;5039135;28;20229;-92
2022/10/02 00:28:27;;;;;;;10.37;2.90;;;9.70;99.90;;;;;;5037853;28;20212;-91
2022/10/02 00:31:16;;;;;;;10.50;2.63;;;9.80;99.90;;;;;;5015935;28;20325;-91
2022/10/02 00:33:53;;;;;;;16.00;3.60;;;9.80;99.90;;;;;;5012747;28;20243;-91
2022/10/02 00:36:34;;;;;;;13.33;3.20;;;9.90;99.90;;;;;;5018816;28;20220;-88
2022/10/02 00:39:10;;;;;;;11.90;2.53;;;9.90;99.90;;;;;;5015758;28;20299;-91
2022/10/02 00:42:08;;;;;;;8.53;2.23;;;10.00;99.90;;;;;;5023715;28;20270;-92
2022/10/02 00:45:14;;;;;;;13.13;3.23;;;10.00;99.90;;;;;;5005646;28;20464;-93
2022/10/02 00:47:53;;;;;;;14.40;3.20;;;10.10;99.90;;;;;;5017897;28;20219;-92
2022/10/02 00:50:30;;;;;;;14.07;3.20;;;10.10;99.90;;;;;;5023154;28;20248;-91
2022/10/02 00:53:12;;;;;;;12.07;3.00;;;10.10;99.90;;;;;;5023964;28;20244;-92
2022/10/02 00:55:52;;;;;;;9.43;2.83;;;10.20;99.90;;;;;;5034542;28;20426;-92
2022/10/02 00:58:55;;;;;;;10.93;3.30;;;10.20;99.90;;;;;;5028985;28;20287;-93
2022/10/02 01:01:26;;;;;;;13.70;3.00;;;10.30;99.90;;;;;;5032176;28;20266;-92
2022/10/02 01:03:55;;;;;;;13.87;3.60;;;10.30;99.90;;;;;;5033844;28;20765;-92
2022/10/02 01:06:25;;;;;;;7.33;2.20;;;10.30;99.90;;;;;;5019157;28;20227;-93
2022/10/02 01:08:51;;;;;;;14.70;3.43;;;10.30;99.90;;;;;;5034629;28;20223;-92
2022/10/02 01:11:20;;;;;;;13.37;3.90;;;10.40;99.90;;;;;;5016382;28;20387;-91
2022/10/02 01:13:48;;;;;;;9.93;3.07;;;10.50;99.90;;;;;;5025542;28;20223;-92
2022/10/02 01:16:16;;;;;;;10.57;2.97;;;10.40;99.90;;;;;;5019443;28;20251;-92
2022/10/02 01:18:46;;;;;;;12.03;2.93;;;10.40;99.90;;;;;;5027969;28;20436;-92
2022/10/02 01:21:21;;;;;;;12.40;3.03;;;10.50;99.90;;;;;;5027151;28;20223;-93
2022/10/02 01:23:56;;;;;;;11.50;3.03;;;10.30;99.90;;;;;;5024305;28;20517;-92
2022/10/02 01:26:24;;;;;;;18.77;4.83;;;10.40;99.90;;;;;;5018711;28;20963;-92
2022/10/02 01:28:51;;;;;;;13.03;4.10;;;10.40;99.90;;;;;;5012566;28;20581;-91
2022/10/02 01:31:18;;;;;;;11.33;2.67;;;10.40;99.90;;;;;;5017580;28;20219;-90
2022/10/02 01:33:48;;;;;;;10.33;2.63;;;10.40;99.90;;;;;;5014156;28;20531;-91
2022/10/02 01:36:16;;;;;;;11.17;2.40;;;10.40;99.90;;;;;;5019680;28;20271;-91
2022/10/02 01:38:44;;;;;;;12.10;3.17;;;10.40;99.90;;;;;;5021360;28;20226;-91
2022/10/02 01:41:11;;;;;;;9.73;2.93;;;10.50;99.90;;;;;;5018318;28;20231;-90
2022/10/02 01:43:41;;;;;;;10.40;3.30;;;10.40;99.90;;;;;;5019630;28;20323;-91
2022/10/02 01:46:27;;;;;;;13.10;3.50;;;10.40;99.90;;;;;;5018803;28;20303;-92
2022/10/02 01:49:05;;;;;;;7.20;3.57;;;10.50;99.90;;;;;;5021510;28;20224;-91
2022/10/02 01:51:57;;;;;;;13.70;3.83;;;10.50;99.90;;;;;;5024260;28;20227;-90
2022/10/02 01:54:35;;;;;;;9.63;3.80;;;10.50;99.90;;;;;;5030118;28;20262;-92
2022/10/02 01:57:12;;;;;;;10.93;3.20;;;10.60;99.90;;;;;;5030033;28;20285;-92
2022/10/02 01:59:50;;;;;;;12.93;3.37;;;10.50;99.90;;;;;;5048208;28;20214;-92
2022/10/02 02:02:25;;;;;;;14.50;3.40;;;10.50;99.90;;;;;;5046521;28;20840;-92
2022/10/02 02:04:56;;;;;;;9.47;3.37;;;10.50;99.90;;;;;;5011105;28;20343;-91
2022/10/02 02:07:34;;;;;;;8.83;3.33;;;10.50;99.90;;;;;;5016562;28;20498;-93
2022/10/02 02:10:13;;;;;;;16.50;3.70;;;10.50;99.90;;;;;;5022694;28;20455;-92
2022/10/02 02:12:43;;;;;;;9.30;2.47;;;10.50;99.90;;;;;;5049108;28;21158;-91
2022/10/02 02:15:19;;;;;;;10.37;3.50;;;10.50;99.90;;;;;;5029306;28;20267;-92
2022/10/02 02:17:52;;;;;;;7.07;2.67;;;10.50;99.90;;;;;;5045438;28;20214;-92
2022/10/02 02:20:26;;;;;;;10.40;2.90;;;10.40;99.90;;;;;;5031506;28;20223;-92
2022/10/02 02:22:58;;;;;;;11.00;2.90;;;10.40;99.90;;;;;;5017971;28;20628;-92
2022/10/02 02:25:28;;;;;;;13.77;3.87;;;10.40;99.90;;;;;;5022669;28;20239;-92
2022/10/02 02:27:58;;;;;;;9.80;3.10;;;10.40;99.90;;;;;;5024665;28;20218;-92
2022/10/02 02:30:27;;;;;;;10.57;3.37;;;10.30;99.90;;;;;;5029669;28;20328;-93
2022/10/02 02:33:01;;;;;;;11.63;3.73;;;10.30;99.90;;;;;;5036162;28;20302;-93
2022/10/02 02:35:30;;;;;;;12.20;3.53;;;10.30;99.90;;;;;;5026396;28;20783;-92
2022/10/02 02:38:03;;;;;;;10.67;3.50;;;10.30;99.90;;;;;;5024611;28;20247;-93
2022/10/02 02:40:32;;;;;;;11.23;3.30;;;10.30;99.90;;;;;;5028084;28;20232;-91
2022/10/02 02:43:16;;;;;;;10.20;3.13;;;10.30;99.90;;;;;;5039511;28;20224;-91
2022/10/02 02:45:50;;;;;;;8.27;2.83;;;10.30;99.90;;;;;;5021211;28;20221;-91
2022/10/02 02:48:21;;;;;;;5.73;2.50;;;10.20;99.90;;;;;;5023306;28;20267;-92
2022/10/02 02:50:51;;;;;;;10.70;2.73;;;10.20;99.90;;;;;;5028022;28;20628;-92
2022/10/02 02:53:22;;;;;;;7.47;2.90;;;10.20;99.90;;;;;;5022960;28;20503;-92
2022/10/02 02:55:53;;;;;;;9.30;2.90;;;10.10;99.90;;;;;;5027942;28;20218;-92
2022/10/02 02:58:24;;;;;;;8.00;2.87;;;10.10;99.90;;;;;;5036283;28;20232;-93
2022/10/02 03:00:53;;;;;;;10.80;2.90;;;10.10;99.90;;;;;;5034092;28;20224;-93
2022/10/02 03:03:20;;;;;;;9.03;2.50;;;10.00;99.90;;;;;;5035273;28;20227;-92
2022/10/02 03:05:49;;;;;;;6.93;2.83;;;10.00;99.90;;;;;;5027351;28;20251;-92
2022/10/02 03:08:22;;;;;;;8.20;2.90;;;10.00;99.90;;;;;;5040554;28;20215;-93
2022/10/02 03:11:04;;;;;;;16.27;3.87;;;9.90;99.90;;;;;;5042749;28;20227;-94
2022/10/02 03:13:46;;;;;;;7.77;2.47;;;10.00;99.90;;;;;;5040476;28;20228;-94
2022/10/02 03:16:28;;;;;;;12.83;3.10;;;10.00;99.90;;;;;;5032839;28;20264;-92
2022/10/02 03:19:08;;;;;;;8.10;2.37;;;10.00;99.90;;;;;;5041406;28;20284;-95
2022/10/02 03:21:40;;;;;;;9.77;3.23;;;10.10;99.90;;;;;;5047454;28;20247;-93
2022/10/02 03:24:14;;;;;;;10.47;2.63;;;10.10;99.90;;;;;;5043652;28;20230;-94
2022/10/02 03:26:47;;;;;;;7.80;2.40;;;10.00;99.90;;;;;;5038336;28;20258;-92
2022/10/02 03:29:20;;;;;;;9.37;2.00;;;10.00;99.90;;;;;;5034568;28;20207;-93
2022/10/02 03:31:49;;;;;;;11.43;2.57;;;10.00;99.90;;;;;;5046239;28;20262;-92
2022/10/02 03:34:18;;;;;;;10.13;2.90;;;10.00;99.90;;;;;;5035049;28;20314;-96
2022/10/02 03:36:46;;;;;;;9.60;3.00;;;10.10;99.90;;;;;;5027459;28;20213;-93
2022/10/02 03:39:13;;;;;;;6.27;2.40;;;10.00;99.90;;;;;;5025473;28;20698;-94
2022/10/02 03:41:40;;;;;;;6.37;2.50;;;10.00;99.90;;;;;;5042238;28;20239;-94
2022/10/02 03:44:09;;;;;;;8.50;3.10;;;10.10;99.90;;;;;;5045484;28;20216;-96
2022/10/02 03:46:36;;;;;;;11.43;2.77;;;10.10;99.90;;;;;;5035855;28;20251;-93
2022/10/02 03:49:04;;;;;;;6.67;2.87;;;10.10;99.90;;;;;;5030898;28;20727;-93
2022/10/02 03:51:31;;;;;;;7.70;2.43;;;10.10;99.90;;;;;;5025658;28;20244;-94
2022/10/02 03:53:58;;;;;;;13.10;3.17;;;10.10;99.90;;;;;;5036163;28;20352;-93
2022/10/02 03:56:35;;;;;;;14.23;3.23;;;10.10;99.90;;;;;;5024655;28;20288;-93
2022/10/02 03:59:05;;;;;;;11.43;3.70;;;10.10;99.90;;;;;;5025642;28;20227;-94
2022/10/02 04:01:36;;;;;;;9.07;2.90;;;10.10;99.90;;;;;;5016126;28;20754;-93
2022/10/02 04:04:16;;;;;;;9.83;2.90;;;10.10;99.90;;;;;;5022196;28;20237;-95
2022/10/02 04:06:47;;;;;;;7.23;2.67;;;10.00;99.90;;;;;;5021039;28;20220;-94
2022/10/02 04:09:21;;;;;;;8.93;2.93;;;10.10;99.90;;;;;;5052276;22;20226;-83
2022/10/02 04:11:55;;;;;;;10.47;2.70;;;10.00;99.90;;;;;;5009509;28;20234;-83
2022/10/02 04:14:28;;;;;;;9.10;3.00;;;10.00;99.90;;;;;;5015450;28;20285;-83
2022/10/02 04:17:01;;;;;;;5.30;2.60;;;10.00;99.90;;;;;;5001622;28;20223;-83
2022/10/02 04:19:35;;;;;;;9.67;2.50;;;9.90;99.90;;;;;;5003419;28;20237;-83
2022/10/02 04:22:07;;;;;;;8.10;2.70;;;9.80;99.90;;;;;;5003127;28;20318;-82
2022/10/02 04:24:41;;;;;;;8.70;2.67;;;9.80;99.90;;;;;;5003928;28;20239;-82
2022/10/02 04:27:18;;;;;;;7.43;2.80;;;9.70;99.90;;;;;;5004667;28;20235;-83
2022/10/02 04:29:50;;;;;;;9.70;3.17;;;9.70;99.90;;;;;;5020637;28;20709;-83
2022/10/02 04:32:25;;;;;;;6.47;2.97;;;9.60;99.90;;;;;;5007114;28;20246;-80
2022/10/02 04:34:54;;;;;;;6.77;2.70;;;9.50;99.90;;;;;;5005983;28;20219;-80
2022/10/02 04:37:32;;;;;;;10.27;2.87;;;9.50;99.90;;;;;;4992345;28;20225;-79
2022/10/02 04:40:16;;;;;;;8.37;2.87;;;9.40;99.90;;;;;;5001504;28;20921;-78
2022/10/02 04:42:54;;;;;;;7.07;2.50;;;9.30;99.90;;;;;;5003816;28;20362;-79
2022/10/02 04:45:32;;;;;;;8.13;2.77;;;9.30;99.90;;;;;;4997795;28;20611;-80
2022/10/02 04:48:28;;;;;;;7.80;2.60;;;9.30;99.90;;;;;;5000879;28;20223;-80
2022/10/02 04:51:06;;;;;;;10.43;2.63;;;9.20;99.90;;;;;;5016128;28;20342;-79
2022/10/02 04:53:45;;;;;;;12.83;2.83;;;9.20;99.90;;;;;;4998975;28;20229;-79
2022/10/02 04:56:29;;;;;;;5.63;2.57;;;9.20;99.90;;;;;;5005127;28;20299;-79
2022/10/02 04:59:09;;;;;;;8.00;2.80;;;9.20;99.90;;;;;;4999640;28;20312;-78
2022/10/02 05:01:53;;;;;;;8.90;2.93;;;9.10;99.90;;;;;;5002276;28;20232;-78
2022/10/02 05:04:40;;;;;;;11.07;2.97;;;9.10;99.90;;;;;;4995925;28;20670;-78
2022/10/02 05:07:23;;;;;;;10.10;3.20;;;9.10;99.90;;;;;;4999952;28;20233;-79
2022/10/02 05:10:00;;;;;;;7.30;2.90;;;9.10;99.90;;;;;;5002920;28;20235;-79
2022/10/02 05:12:41;;;;;;;11.47;3.60;;;9.10;99.90;;;;;;5000922;28;20238;-80
2022/10/02 05:15:35;;;;;;;7.53;2.70;;;9.10;99.90;;;;;;5004008;28;20695;-79
2022/10/02 05:18:28;;;;;;;9.30;3.10;;;9.10;99.90;;;;;;4992233;28;20231;-82
2022/10/02 05:21:10;;;;;;;10.87;3.70;;;9.10;99.90;;;;;;5003303;28;20811;-81
2022/10/02 05:23:54;;;;;;;12.77;3.00;;;9.20;99.90;;;;;;5014477;28;20240;-79
2022/10/02 05:26:48;;;;;;;5.83;2.77;;;9.20;99.90;;;;;;4997445;28;20763;-79
2022/10/02 05:29:31;;;;;;;8.47;3.00;;;9.20;99.90;;;;;;4992057;28;20223;-79
2022/10/02 05:32:13;;;;;;;9.93;3.13;;;9.20;99.90;;;;;;4996532;28;20231;-78
2022/10/02 05:34:52;;;;;;;10.53;3.60;;;9.20;99.90;;;;;;5016280;28;20255;-79
2022/10/02 05:37:41;;;;;;;11.23;3.60;;;9.30;99.90;;;;;;5000453;28;20212;-79
2022/10/02 05:40:18;;;;;;;11.43;3.67;;;9.30;99.90;;;;;;5013720;28;20239;-79
2022/10/02 05:42:51;;;;;;;12.53;3.70;;;9.40;99.90;;;;;;4999608;28;20232;-79
2022/10/02 05:45:27;;;;;;;14.90;3.50;;;9.40;99.90;;;;;;5003590;28;20240;-79
2022/10/02 05:48:02;;;;;;;9.97;4.07;;;9.40;99.90;;;;;;4999470;28;20231;-79
2022/10/02 05:50:34;;;;;;;7.63;3.97;;;9.50;99.90;;;;;;5013857;28;20227;-79
2022/10/02 05:53:05;;;;;;;9.43;3.77;;;9.50;99.90;;;;;;4991864;28;20303;-79
2022/10/02 05:55:37;;;;;;;11.77;3.83;;;9.50;99.90;;;;;;5010174;28;20231;-78
2022/10/02 05:58:07;;;;;;;8.83;3.60;;;9.60;99.90;;;;;;4999010;28;20231;-79
2022/10/02 06:00:44;;;;;;;8.57;4.00;;;9.60;99.90;;;;;;4998740;28;20229;-79
2022/10/02 06:03:16;;;;;;;10.43;3.93;;;9.70;99.90;;;;;;5000346;28;20539;-79
2022/10/02 06:05:53;;;;;;;11.07;3.87;;;9.70;99.90;;;;;;4995818;28;20227;-79
2022/10/02 06:08:25;;;;;;;10.70;4.27;;;9.70;99.90;;;;;;5001589;28;20224;-79
2022/10/02 06:10:58;;;;;;;13.10;4.40;;;9.80;99.90;;;;;;4994636;28;20246;-79
2022/10/02 06:13:34;;;;;;;12.77;3.93;;;9.90;99.90;;;;;;4996134;28;20224;-79
2022/10/02 06:16:11;;;;;;;8.30;3.77;;;9.90;99.90;;;;;;4999029;28;20259;-79
2022/10/02 06:18:43;;;;;;;12.03;4.20;;;10.00;99.90;;;;;;4992813;28;20237;-83
2022/10/02 06:21:18;;;;;;;12.93;4.27;;;10.00;99.90;;;;;;4995443;28;20230;-83
2022/10/02 06:23:49;;;;;;;11.30;4.57;;;10.10;99.90;;;;;;5021235;28;20230;-83
2022/10/02 06:26:28;;;;;;;12.60;3.93;;;10.10;99.90;;;;;;5007710;28;20318;-82
2022/10/02 06:28:59;;;;;;;11.40;4.30;;;10.20;99.90;;;;;;5018043;28;20233;-83
2022/10/02 06:31:33;;;;;;;9.67;3.70;;;10.20;99.90;;;;;;5019863;28;20235;-83
2022/10/02 06:34:03;;;;;;;10.03;3.63;;;10.20;99.90;;;;;;5016175;28;20226;-83
2022/10/02 06:36:49;;;;;;;17.63;4.13;;;10.30;99.90;;;;;;5016432;28;20935;-84
2022/10/02 06:39:41;;;;;;;9.30;3.60;;;10.30;99.90;;;;;;5006393;28;20248;-84
2022/10/02 06:42:21;;;;;;;7.47;3.10;;;10.30;99.90;;;;;;4992697;28;20241;-83
2022/10/02 06:44:58;;;;;;;9.47;3.37;;;10.40;99.90;;;;;;5020413;28;20743;-83
2022/10/02 06:47:35;;;;;;;12.73;3.13;;;10.40;99.90;;;;;;5024130;28;20238;-83
2022/10/02 06:50:30;;;;;;;11.27;3.00;;;10.50;99.90;;;;;;4999073;28;20255;-82
2022/10/02 06:53:06;;;;;;;8.43;2.23;;;10.50;99.90;;;;;;5007660;28;20231;-82
2022/10/02 06:55:45;;;;;;;6.57;2.53;;;10.50;99.90;;;;;;5004191;28;20957;-83
2022/10/02 06:58:39;;;;;;;7.50;2.47;;;10.50;99.90;;;;;;5001496;28;20235;-83
2022/10/02 07:01:18;;;;;;;8.40;2.47;;;10.60;99.90;;;;;;5006798;28;20229;-82
2022/10/02 07:04:19;;;;;;;6.57;1.93;;;10.60;99.90;;;;;;5005789;28;20221;-83
2022/10/02 07:06:57;;;;;;;6.20;2.70;;;10.60;99.90;;;;;;4974354;28;20228;-81
2022/10/02 07:09:40;;;;;;;7.10;2.80;;;10.70;99.90;;;;;;5002433;28;20282;-82
2022/10/02 07:12:23;;;;;;;5.17;2.50;;;10.80;99.90;;;;;;5002033;28;20291;-82
2022/10/02 07:15:05;;;;;;;10.40;2.80;;;10.80;99.90;;;;;;5007570;28;20239;-82
2022/10/02 07:17:46;;;;;;;3.93;2.40;;;10.80;99.90;;;;;;5014737;28;20228;-84
2022/10/02 07:20:28;;;;;;;7.20;2.53;;;10.90;99.90;;;;;;5001295;28;20221;-83
2022/10/02 07:23:12;;;;;;;8.87;2.80;;;10.90;99.90;;;;;;5002818;28;20235;-83
2022/10/02 07:26:14;;;;;;;5.03;2.53;;;11.00;99.90;;;;;;5001610;28;20237;-83
2022/10/02 07:28:49;;;;;;;6.20;2.33;;;11.00;99.90;;;;;;5012087;28;20224;-83
2022/10/02 07:31:26;;;;;;;6.10;1.87;;;11.10;99.90;;;;;;5017866;28;20233;-83
2022/10/02 07:34:12;;;;;;;6.13;2.00;;;11.20;99.90;;;;;;4990671;28;20232;-83
2022/10/02 07:36:52;;;;;;;5.63;2.27;;;11.20;99.90;;;;;;5007886;28;20229;-83
2022/10/02 07:39:35;;;;;;;4.93;1.90;;;11.30;99.90;;;;;;5001763;28;20230;-83
2022/10/02 07:42:28;;;;;;;8.10;3.67;;;11.50;99.90;;;;;;5001417;28;20230;-83
2022/10/02 07:45:27;;;;;;;3.70;1.97;;;11.60;99.90;;;;;;5008991;28;20233;-83
2022/10/02 07:48:23;;;;;;;3.67;1.80;;;11.90;99.90;;;;;;5002988;28;20230;-83
2022/10/02 07:51:02;;;;;;;4.90;1.80;;;12.10;99.90;;;;;;5005467;28;20237;-84
2022/10/02 07:53:38;;;;;;;4.60;2.20;;;12.20;99.90;;;;;;4999566;28;20243;-84
2022/10/02 07:56:08;;;;;;;5.07;2.00;;;12.30;99.90;;;;;;5003575;28;20241;-84
2022/10/02 07:58:40;;;;;;;6.37;2.27;;;12.30;99.90;;;;;;5002858;28;20819;-83
2022/10/02 08:01:15;;;;;;;5.63;2.60;;;12.30;99.90;;;;;;4994608;28;20663;-83
2022/10/02 08:03:49;;;;;;;6.27;1.80;;;12.20;99.90;;;;;;5000338;28;20236;-83
2022/10/02 08:06:17;;;;;;;7.50;2.33;;;12.20;99.90;;;;;;4996963;28;20230;-83
2022/10/02 08:08:49;;;;;;;5.60;2.03;;;12.10;99.90;;;;;;5002666;28;20222;-83
2022/10/02 08:11:20;;;;;;;7.57;2.33;;;12.10;99.90;;;;;;5000793;28;20236;-82
2022/10/02 08:13:53;;;;;;;9.07;2.60;;;12.10;99.90;;;;;;4996797;28;20257;-83
2022/10/02 08:16:22;;;;;;;6.40;2.00;;;12.10;99.90;;;;;;4999429;28;20229;-83
2022/10/02 08:18:56;;;;;;;4.77;2.10;;;12.10;99.90;;;;;;4999918;28;20666;-83
2022/10/02 08:21:25;;;;;;;8.53;2.10;;;12.20;99.90;;;;;;5014797;28;21025;-86
2022/10/02 08:23:58;;;;;;;6.23;1.80;;;12.30;99.90;;;;;;4999918;28;20226;-85
2022/10/02 08:26:30;;;;;;;7.20;2.17;;;12.40;99.90;;;;;;4988118;28;20252;-86
2022/10/02 08:29:04;;;;;;;5.10;2.10;;;12.40;99.90;;;;;;4989232;28;20790;-85
2022/10/02 08:31:37;;;;;;;7.20;2.43;;;12.60;99.90;;;;;;4999941;28;20239;-86
2022/10/02 08:34:13;;;;;;;6.30;1.80;;;12.90;99.90;;;;;;4999957;28;20716;-85
2022/10/02 08:37:13;;;;;;;6.60;2.40;;;13.30;99.90;;;;;;5011506;28;20218;-85
2022/10/02 08:40:03;;;;;;;6.07;2.10;;;13.70;99.90;;;;;;5000970;28;20347;-85
2022/10/02 08:42:59;;;;;;;8.43;2.60;;;14.00;99.90;;;;;;4992092;28;20318;-86
2022/10/02 08:46:05;;;;;;;7.07;2.27;;;14.10;99.90;;;;;;4995555;28;20999;-86
2022/10/02 08:49:20;;;;;;;5.27;2.10;;;13.90;99.90;;;;;;4971109;28;20700;-85
2022/10/02 08:52:28;;;;;;;3.80;1.37;;;13.60;99.90;;;;;;4993650;28;20514;-84
2022/10/02 08:55:36;;;;;;;4.13;1.30;;;13.30;99.90;;;;;;4995692;28;20240;-84
2022/10/02 08:58:39;;;;;;;5.83;1.77;;;13.00;99.90;;;;;;4963090;28;20650;-82
2022/10/02 09:01:26;;;;;;;5.27;2.03;;;12.80;99.90;;;;;;5006456;28;20777;-82
2022/10/02 09:04:28;;;;;;;5.63;2.10;;;12.60;99.90;;;;;;4996720;28;20249;-82
2022/10/02 09:07:16;;;;;;;7.03;2.20;;;12.40;99.90;;;;;;5003149;28;20734;-82
2022/10/02 09:10:17;;;;;;;6.33;2.30;;;12.40;99.90;;;;;;5012322;28;20317;-83
2022/10/02 09:13:13;;;;;;;5.27;2.30;;;12.30;99.90;;;;;;4997714;28;20229;-82
2022/10/02 09:15:46;;;;;;;5.40;2.13;;;12.20;99.90;;;;;;5006293;28;20626;-82
2022/10/02 09:18:18;;;;;;;4.70;2.33;;;12.10;99.90;;;;;;5000803;28;20278;-82
2022/10/02 09:21:10;;;;;;;6.27;2.33;;;12.10;99.90;;;;;;5003367;28;20230;-82
2022/10/02 09:24:14;;;;;;;7.00;2.23;;;12.20;99.90;;;;;;5017704;28;20486;-82
2022/10/02 09:27:00;;;;;;;116.30;11.10;;;12.40;99.90;;;;;;5018408;28;20316;-82
2022/10/02 09:29:59;;;;;;;5.10;2.23;;;12.90;99.90;;;;;;5016521;28;20616;-82
2022/10/02 09:32:58;;;;;;;7.63;3.23;;;13.40;99.90;;;;;;5018262;28;20240;-83
2022/10/02 09:35:54;;;;;;;7.43;2.73;;;13.80;99.90;;;;;;5006188;28;20259;-82
2022/10/02 09:38:45;;;;;;;6.70;2.70;;;14.20;99.90;;;;;;5006206;28;21898;-83
2022/10/02 09:41:46;;;;;;;6.90;2.37;;;14.40;99.90;;;;;;5005227;28;20230;-82
2022/10/02 09:44:47;;;;;;;5.23;2.43;;;14.60;99.90;;;;;;5019135;28;20234;-83
2022/10/02 09:48:07;;;;;;;7.60;2.17;;;14.80;99.90;;;;;;5003943;28;20233;-82
2022/10/02 09:50:59;;;;;;;6.20;2.13;;;15.10;99.90;;;;;;5001546;28;20219;-83
2022/10/02 09:54:09;;;;;;;9.97;2.50;;;15.50;99.90;;;;;;5006717;28;20244;-82
2022/10/02 09:57:10;;;;;;;7.93;2.17;;;15.90;99.90;;;;;;5016057;28;20230;-82
2022/10/02 09:59:58;;;;;;;6.67;2.20;;;16.30;99.90;;;;;;5004190;28;20246;-82
2022/10/02 10:02:52;;;;;;;5.93;2.47;;;16.70;99.90;;;;;;4990191;28;20246;-81
2022/10/02 10:05:46;;;;;;;7.30;2.40;;;17.00;99.90;;;;;;5002683;28;20650;-82
2022/10/02 10:08:41;;;;;;;7.13;2.50;;;17.30;99.90;;;;;;5006711;28;20232;-81
2022/10/02 10:11:46;;;;;;;7.90;2.10;;;17.70;99.90;;;;;;5006341;28;20327;-81
2022/10/02 10:15:08;;;;;;;8.27;2.70;;;18.00;99.90;;;;;;5003565;28;20247;-81
2022/10/02 10:18:05;;;;;;;5.33;1.80;;;18.30;99.90;;;;;;4990033;28;20235;-82
2022/10/02 10:20:55;;;;;;;4.70;1.40;;;18.70;99.90;;;;;;5017363;28;20285;-81
2022/10/02 10:23:52;;;;;;;3.27;1.30;;;18.90;99.90;;;;;;5016331;28;20384;-81
2022/10/02 10:26:48;;;;;;;6.27;1.70;;;19.10;99.90;;;;;;5001943;28;20311;-81
2022/10/02 10:29:30;;;;;;;4.73;1.77;;;19.30;99.90;;;;;;5002482;28;20226;-81
2022/10/02 10:32:36;;;;;;;4.20;1.30;;;19.50;99.90;;;;;;5008586;28;20735;-81
2022/10/02 10:35:36;;;;;;;6.13;1.80;;;19.60;99.90;;;;;;5004213;28;20659;-81
2022/10/02 10:38:33;;;;;;;4.60;1.70;;;19.80;99.90;;;;;;5002158;28;20655;-81
2022/10/02 10:41:25;;;;;;;4.27;1.73;;;20.00;99.90;;;;;;5009531;28;20232;-81
2022/10/02 10:44:50;;;;;;;4.70;1.60;;;20.10;99.90;;;;;;5004835;28;20328;-83
2022/10/02 10:47:48;;;;;;;4.83;1.50;;;20.20;99.90;;;;;;4917589;28;20577;-81
2022/10/02 10:50:35;;;;;;;6.00;1.73;;;20.30;99.90;;;;;;5020674;28;20237;-81
2022/10/02 10:53:29;;;;;;;5.57;1.80;;;20.40;99.90;;;;;;5007399;28;20232;-81
2022/10/02 10:56:20;;;;;;;6.10;1.70;;;20.50;99.90;;;;;;5002724;28;20237;-81
2022/10/02 10:59:11;;;;;;;5.13;1.83;;;20.50;99.90;;;;;;5026746;28;20237;-81
2022/10/02 11:01:51;;;;;;;5.80;2.03;;;20.50;99.90;;;;;;5004343;28;20776;-81
2022/10/02 11:04:51;;;;;;;5.20;1.60;;;20.40;99.90;;;;;;5004908;28;20222;-81
2022/10/02 11:07:43;;;;;;;6.87;2.03;;;20.40;99.90;;;;;;4998978;28;20295;-81
2022/10/02 11:10:30;;;;;;;9.23;2.30;;;20.40;99.90;;;;;;5002108;28;20229;-81
2022/10/02 11:13:17;;;;;;;7.20;2.03;;;20.30;99.90;;;;;;5004211;28;20753;-81
2022/10/02 11:16:13;;;;;;;7.13;2.17;;;20.30;99.90;;;;;;5009641;28;20222;-81
2022/10/02 11:19:00;;;;;;;7.90;2.23;;;20.10;99.90;;;;;;4993531;28;20251;-81
2022/10/02 11:21:51;;;;;;;7.37;2.00;;;19.90;99.90;;;;;;4996700;28;20227;-81
2022/10/02 11:24:54;;;;;;;6.33;1.97;;;19.70;99.90;;;;;;4999040;28;20228;-81
2022/10/02 11:27:37;;;;;;;6.00;1.93;;;19.40;99.90;;;;;;5001452;28;20224;-81
2022/10/02 11:30:20;;;;;;;8.23;2.23;;;19.20;99.90;;;;;;5004230;28;20251;-81
2022/10/02 11:33:18;;;;;;;7.13;1.90;;;19.00;99.90;;;;;;5008417;28;20230;-81
2022/10/02 11:35:59;;;;;;;7.30;2.20;;;18.90;99.90;;;;;;5003577;28;20237;-81
2022/10/02 11:39:04;;;;;;;10.70;2.30;;;18.70;99.90;;;;;;5003058;28;20282;-82
2022/10/02 11:41:49;;;;;;;9.60;1.97;;;18.50;99.90;;;;;;5004911;28;20608;-81
2022/10/02 11:44:29;;;;;;;10.33;2.43;;;18.20;99.90;;;;;;5002015;28;20229;-82
2022/10/02 11:47:27;;;;;;;8.03;2.20;;;17.90;99.90;;;;;;5001233;28;20227;-81
2022/10/02 11:50:31;;;;;;;9.27;2.33;;;17.60;99.90;;;;;;5023922;28;20224;-82
2022/10/02 11:53:15;;;;;;;6.83;2.40;;;17.20;99.90;;;;;;4999268;28;20232;-82
2022/10/02 11:55:52;;;;;;;7.67;2.33;;;16.90;99.90;;;;;;5001710;28;20223;-82
2022/10/02 11:58:31;;;;;;;10.80;2.30;;;16.60;99.90;;;;;;4999567;28;20222;-83
2022/10/02 12:01:13;;;;;;;12.03;2.77;;;16.40;99.90;;;;;;5014903;28;20228;-83
2022/10/02 12:03:52;;;;;;;10.57;2.60;;;16.20;99.90;;;;;;5001389;28;20227;-83
2022/10/02 12:06:32;;;;;;;12.67;2.80;;;16.10;99.90;;;;;;4999803;28;20577;-83
2022/10/02 12:09:09;;;;;;;12.07;2.97;;;16.00;99.90;;;;;;5003095;28;20228;-83
2022/10/02 12:11:44;;;;;;;13.77;3.00;;;15.80;99.90;;;;;;4999776;28;20229;-81
2022/10/02 12:14:28;;;;;;;11.83;2.80;;;15.70;99.90;;;;;;5003484;28;20229;-84
2022/10/02 12:17:08;;;;;;;8.40;2.40;;;15.40;99.90;;;;;;5000166;28;20230;-83
2022/10/02 12:28:35;;;;;;;7.13;1.87;;;14.50;99.90;;;;;;4995642;28;20290;-81
2022/10/02 12:31:09;;;;;;;6.50;1.73;;;14.40;99.90;;;;;;5008993;28;20218;-82
2022/10/02 12:33:45;;;;;;;7.47;1.90;;;14.30;99.90;;;;;;5004820;28;20302;-82
2022/10/02 12:36:33;;;;;;;7.50;2.30;;;14.30;99.90;;;;;;5003937;28;20259;-81
2022/10/02 12:39:24;;;;;;;8.50;2.17;;;14.30;99.90;;;;;;4996591;28;20239;-82
2022/10/02 12:42:03;;;;;;;9.07;2.63;;;14.40;99.90;;;;;;5003556;28;20238;-81
2022/10/02 12:44:43;;;;;;;9.43;2.33;;;14.40;99.90;;;;;;4999040;28;20229;-81
2022/10/02 12:47:28;;;;;;;5.67;2.07;;;14.40;99.90;;;;;;4999986;28;20228;-81
2022/10/02 12:50:09;;;;;;;9.63;2.13;;;14.50;99.90;;;;;;5000953;28;20227;-81
2022/10/02 12:53:21;;;;;;;8.63;2.50;;;14.50;99.90;;;;;;5003307;28;20254;-82
2022/10/02 12:56:06;;;;;;;11.73;2.37;;;14.60;99.90;;;;;;5000361;28;20833;-82
2022/10/02 12:58:45;;;;;;;10.00;2.43;;;14.70;99.90;;;;;;5007552;28;20643;-81
2022/10/02 13:01:51;;;;;;;20.13;4.03;;;14.70;99.90;;;;;;4996760;28;20657;-83
2022/10/02 13:05:06;;;;;;;11.70;3.03;;;14.70;99.90;;;;;;5017393;28;20625;-84
2022/10/02 13:08:04;;;;;;;9.77;2.60;;;14.70;99.90;;;;;;5001893;28;20234;-82
2022/10/02 13:10:37;;;;;;;12.93;2.60;;;14.70;99.90;;;;;;5003365;28;20300;-82
2022/10/02 13:13:19;;;;;;;13.07;2.80;;;14.60;99.90;;;;;;5002257;28;20629;-82
2022/10/02 13:15:57;;;;;;;13.07;2.83;;;14.50;99.90;;;;;;4997910;28;20225;-82
2022/10/02 13:18:42;;;;;;;13.70;3.10;;;14.50;99.90;;;;;;5000424;28;20258;-82
2022/10/02 13:21:17;;;;;;;14.07;3.10;;;14.30;99.90;;;;;;5003456;28;20243;-82
2022/10/02 13:23:52;;;;;;;13.80;3.10;;;14.30;99.90;;;;;;5014156;28;20673;-82
2022/10/02 13:26:32;;;;;;;15.30;3.47;;;14.20;99.90;;;;;;5001773;28;21749;-82
2022/10/02 13:29:25;;;;;;;15.23;3.37;;;14.20;99.90;;;;;;5006104;28;20645;-84
2022/10/02 13:32:14;;;;;;;14.13;3.30;;;14.30;99.90;;;;;;5005734;28;20932;-83
2022/10/02 13:35:01;;;;;;;15.30;3.33;;;14.40;99.90;;;;;;5004795;28;20228;-83
2022/10/02 13:37:38;;;;;;;16.37;4.00;;;14.60;99.90;;;;;;4998230;28;20240;-83
2022/10/02 13:40:21;;;;;;;12.17;2.83;;;14.70;99.90;;;;;;4998958;28;20223;-83
2022/10/02 13:43:04;;;;;;;8.03;2.67;;;14.80;99.90;;;;;;5004067;28;20229;-83
2022/10/02 13:45:36;;;;;;;10.03;3.77;;;14.90;99.90;;;;;;5021505;28;20223;-83
2022/10/02 13:48:13;;;;;;;13.60;3.13;;;15.00;99.90;;;;;;5003570;28;20230;-83
2022/10/02 13:50:52;;;;;;;12.27;2.37;;;15.10;99.90;;;;;;5009283;28;20277;-83
2022/10/02 13:53:44;;;;;;;13.23;2.87;;;15.20;99.90;;;;;;5010494;28;20447;-83
2022/10/02 13:56:23;;;;;;;10.57;2.33;;;15.20;99.90;;;;;;5003898;28;20329;-83
2022/10/02 13:59:16;;;;;;;10.60;2.30;;;15.40;99.90;;;;;;5008927;28;20228;-83
2022/10/02 14:01:59;;;;;;;7.93;2.70;;;15.50;99.90;;;;;;5003239;28;20254;-83
2022/10/02 14:04:43;;;;;;;10.57;2.83;;;15.70;99.90;;;;;;4996603;28;20226;-83
2022/10/02 14:07:24;;;;;;;11.73;3.30;;;15.80;99.90;;;;;;5019089;28;20238;-83